createdAt,value
2018-12-02T00:01:41.482Z,1.30
2018-12-02T00:05:55.174Z,1.40
2018-12-02T00:10:27.050Z,1.50
2018-12-02T00:14:41.603Z,1.47
2018-12-02T00:18:55.077Z,1.70
2018-12-02T00:23:07.712Z,1.90
2018-12-02T00:27:22.826Z,2.33
2018-12-02T00:31:32.886Z,2.43
2018-12-02T00:35:48.323Z,2.40
2018-12-02T00:40:06.694Z,2.00
2018-12-02T00:44:20.247Z,2.17
2018-12-02T00:48:37.506Z,2.53
2018-12-02T00:52:54.373Z,2.30
2018-12-02T00:57:02.921Z,2.30
2018-12-02T01:01:13.114Z,2.40
2018-12-02T01:05:26.596Z,1.70
2018-12-02T01:09:35.853Z,2.30
2018-12-02T01:13:57.001Z,1.70
2018-12-02T01:18:14.221Z,2.17
2018-12-02T01:22:28.995Z,1.50
2018-12-02T01:26:46.214Z,1.67
2018-12-02T01:30:55.702Z,1.40
2018-12-02T01:35:08.202Z,1.40
2018-12-02T01:39:21.813Z,1.50
2018-12-02T01:43:33.782Z,1.50
2018-12-02T01:48:05.651Z,1.37
2018-12-02T01:52:17.908Z,1.52
2018-12-02T01:56:27.936Z,1.87
2018-12-02T02:00:38.572Z,1.83
2018-12-02T02:04:48.046Z,1.80
2018-12-02T02:09:06.158Z,1.80
2018-12-02T02:13:18.800Z,2.03
2018-12-02T02:17:32.390Z,1.80
2018-12-02T02:21:42.356Z,1.83
2018-12-02T02:25:55.084Z,1.77
2018-12-02T02:30:08.611Z,1.40
2018-12-02T02:34:19.741Z,1.80
2018-12-02T02:38:29.621Z,2.27
2018-12-02T02:42:39.676Z,1.53
2018-12-02T02:46:53.123Z,1.70
2018-12-02T02:51:12.386Z,1.73
2018-12-02T02:55:25.586Z,1.70
2018-12-02T02:59:41.197Z,1.50
2018-12-02T03:03:59.795Z,1.67
2018-12-02T03:08:19.207Z,1.40
2018-12-02T03:12:33.494Z,1.40
2018-12-02T03:16:46.307Z,1.60
2018-12-02T03:20:58.054Z,1.40
2018-12-02T03:25:15.210Z,1.37
2018-12-02T03:29:30.820Z,1.40
2018-12-02T03:33:42.670Z,1.47
2018-12-02T03:37:50.746Z,1.30
2018-12-02T03:42:05.581Z,1.90
2018-12-02T03:46:18.669Z,1.40
2018-12-02T03:50:29.041Z,1.52
2018-12-02T03:54:42.618Z,1.70
2018-12-02T03:58:53.549Z,2.20
2018-12-02T04:03:03.586Z,1.57
2018-12-02T04:07:14.300Z,1.70
2018-12-02T04:11:27.919Z,1.70
2018-12-02T04:15:44.560Z,1.40
2018-12-02T04:20:05.067Z,1.60
2018-12-02T04:24:20.491Z,1.43
2018-12-02T04:28:40.789Z,1.90
2018-12-02T04:32:50.155Z,1.83
2018-12-02T04:36:59.362Z,1.57
2018-12-02T04:41:16.808Z,1.67
2018-12-02T04:45:35.910Z,2.10
2018-12-02T04:49:53.858Z,2.23
2018-12-02T04:54:09.206Z,1.90
2018-12-02T04:58:24.706Z,2.43
2018-12-02T05:02:34.067Z,2.07
2018-12-02T05:06:49.509Z,2.30
2018-12-02T05:11:06.955Z,2.23
2018-12-02T05:15:28.144Z,2.50
2018-12-02T05:19:39.914Z,2.40
2018-12-02T05:24:02.200Z,2.30
2018-12-02T05:28:15.458Z,2.83
2018-12-02T05:32:25.395Z,2.72
2018-12-02T05:36:44.068Z,2.70
2018-12-02T05:40:54.658Z,2.87
2018-12-02T05:45:11.204Z,2.73
2018-12-02T05:49:26.552Z,3.07
2018-12-02T05:53:38.344Z,2.73
2018-12-02T05:57:50.918Z,3.37
2018-12-02T06:01:59.982Z,3.50
2018-12-02T06:06:16.591Z,3.50
2018-12-02T06:10:30.757Z,3.83
2018-12-02T06:14:48.943Z,4.77
2018-12-02T06:18:58.761Z,3.63
2018-12-02T06:23:10.835Z,3.77
2018-12-02T06:27:26.156Z,3.50
2018-12-02T06:31:34.314Z,3.47
2018-12-02T06:35:51.425Z,3.53
2018-12-02T06:40:05.245Z,3.37
2018-12-02T06:44:22.534Z,3.30
2018-12-02T06:48:37.955Z,3.60
2018-12-02T06:52:46.863Z,3.40
2018-12-02T06:57:36.612Z,3.00
2018-12-02T07:02:46.498Z,3.10
2018-12-02T07:07:02.633Z,2.70
2018-12-02T07:11:09.931Z,3.03
2018-12-02T07:15:22.566Z,2.80
2018-12-02T07:19:58.232Z,2.97
2018-12-02T07:24:19.810Z,3.43
2018-12-02T07:28:38.611Z,3.53
2018-12-02T07:32:50.310Z,3.43
2018-12-02T07:37:10.450Z,4.73
2018-12-02T07:41:20.500Z,5.72
2018-12-02T07:45:38.919Z,6.40
2018-12-02T07:49:46.890Z,7.07
2018-12-02T07:53:56.040Z,7.50
2018-12-02T07:58:06.923Z,8.53
2018-12-02T08:02:18.250Z,7.20
2018-12-02T08:06:29.730Z,7.67
2018-12-02T08:10:45.829Z,6.70
2018-12-02T08:14:54.782Z,8.53
2018-12-02T08:19:02.836Z,6.83
2018-12-02T08:23:15.890Z,7.67
2018-12-02T08:27:24.837Z,7.75
2018-12-02T08:31:41.893Z,8.07
2018-12-02T08:35:55.465Z,7.97
2018-12-02T08:40:12.675Z,8.27
2018-12-02T08:44:29.132Z,8.77
2018-12-02T08:48:44.807Z,8.87
2018-12-02T08:53:01.645Z,8.63
2018-12-02T08:57:17.251Z,9.00
2018-12-02T09:01:34.277Z,9.23
2018-12-02T09:05:49.846Z,10.03
2018-12-02T09:10:04.871Z,10.13
2018-12-02T09:14:25.733Z,10.53
2018-12-02T09:18:40.869Z,10.00
2018-12-02T09:22:52.636Z,9.77
2018-12-02T09:27:08.774Z,8.73
2018-12-02T09:31:20.456Z,8.07
2018-12-02T09:35:38.250Z,7.67
2018-12-02T09:39:47.808Z,7.20
2018-12-02T09:43:55.081Z,7.23
2018-12-02T09:48:10.788Z,7.90
2018-12-02T09:52:22.525Z,8.10
2018-12-02T09:56:35.109Z,8.20
2018-12-02T10:00:49.000Z,8.43
2018-12-02T10:04:59.071Z,8.60
2018-12-02T10:09:15.090Z,9.30
2018-12-02T10:13:33.035Z,9.15
2018-12-02T10:17:45.930Z,9.53
2018-12-02T10:21:59.845Z,9.90
2018-12-02T10:26:13.521Z,9.15
2018-12-02T10:30:26.535Z,9.35
2018-12-02T10:34:41.795Z,9.57
2018-12-02T10:38:56.325Z,10.87
2018-12-02T10:43:10.661Z,10.93
2018-12-02T10:47:20.784Z,11.60
2018-12-02T10:51:33.518Z,14.53
2018-12-02T10:56:02.759Z,15.90
2018-12-02T11:00:34.385Z,15.37
2018-12-02T11:04:44.271Z,14.17
2018-12-02T11:08:58.403Z,13.67
2018-12-02T11:13:13.814Z,15.27
2018-12-02T11:17:33.658Z,13.28
2018-12-02T11:21:45.385Z,13.07
2018-12-02T11:25:56.176Z,13.90
2018-12-02T11:30:10.471Z,11.63
2018-12-02T11:34:20.424Z,10.85
2018-12-02T11:38:30.216Z,7.30
2018-12-02T11:42:42.051Z,5.90
2018-12-02T11:46:55.522Z,4.00
2018-12-02T11:51:09.326Z,3.73
2018-12-02T11:55:33.098Z,2.73
2018-12-02T11:59:41.712Z,3.67
2018-12-02T12:03:55.109Z,3.60
2018-12-02T12:08:09.394Z,4.23
2018-12-02T12:12:27.335Z,4.28
2018-12-02T12:16:36.639Z,4.23
2018-12-02T12:20:47.348Z,3.37
2018-12-02T12:25:04.453Z,3.37
2018-12-02T12:29:23.170Z,2.92
2018-12-02T12:33:32.020Z,3.17
2018-12-02T12:37:50.233Z,3.83
2018-12-02T12:41:59.361Z,2.58
2018-12-02T12:46:14.761Z,3.40
2018-12-02T12:50:27.402Z,3.13
2018-12-02T12:54:42.692Z,2.57
2018-12-02T12:58:56.298Z,2.93
2018-12-02T13:03:06.180Z,3.13
2018-12-02T13:07:22.333Z,2.93
2018-12-02T13:11:34.925Z,2.83
2018-12-02T13:15:50.236Z,3.13
2018-12-02T13:20:02.894Z,2.90
2018-12-02T13:24:15.558Z,2.70
2018-12-02T13:28:32.836Z,3.40
2018-12-02T13:32:51.539Z,2.90
2018-12-02T13:37:05.176Z,3.20
2018-12-02T13:41:19.101Z,3.47
2018-12-02T13:45:31.655Z,3.55
2018-12-02T13:49:39.234Z,2.63
2018-12-02T13:54:04.816Z,2.70
2018-12-02T13:58:23.971Z,2.90
2018-12-02T14:02:41.444Z,3.20
2018-12-02T14:06:52.259Z,2.50
2018-12-02T14:11:00.847Z,2.10
2018-12-02T14:15:47.601Z,2.60
2018-12-02T14:20:04.764Z,2.47
2018-12-02T14:24:17.127Z,2.47
2018-12-02T14:28:33.382Z,2.65
2018-12-02T14:32:44.645Z,2.17
2018-12-02T14:36:58.628Z,2.00
2018-12-02T14:41:06.230Z,1.63
2018-12-02T14:45:33.242Z,2.15
2018-12-02T14:49:47.793Z,2.80
2018-12-02T14:54:01.997Z,2.43
2018-12-02T14:58:17.904Z,2.20
2018-12-02T15:02:34.245Z,2.37
2018-12-02T15:06:48.608Z,2.67
2018-12-02T15:10:58.965Z,1.83
2018-12-02T15:15:13.378Z,2.17
2018-12-02T15:19:30.626Z,2.03
2018-12-02T15:23:48.934Z,1.80
2018-12-02T15:28:01.602Z,1.67
2018-12-02T15:32:14.694Z,1.80
2018-12-02T15:36:24.449Z,1.47
2018-12-02T15:40:36.494Z,2.13
2018-12-02T15:44:49.093Z,1.93
2018-12-02T15:49:00.778Z,1.83
2018-12-02T15:53:09.687Z,2.40
2018-12-02T15:57:22.348Z,2.10
2018-12-02T16:01:35.037Z,1.50
2018-12-02T16:05:47.800Z,1.30
2018-12-02T16:10:01.283Z,1.50
2018-12-02T16:14:14.484Z,1.97
2018-12-02T16:18:29.542Z,1.62
2018-12-02T16:22:43.218Z,1.80
2018-12-02T16:26:54.056Z,2.17
2018-12-02T16:31:07.693Z,1.40
2018-12-02T16:35:21.219Z,1.62
2018-12-02T16:39:28.604Z,1.73
2018-12-02T16:43:44.005Z,1.70
2018-12-02T16:47:58.283Z,1.70
2018-12-02T16:52:12.772Z,1.43
2018-12-02T16:56:42.654Z,1.70
2018-12-02T17:01:25.830Z,1.13
2018-12-02T17:05:33.546Z,1.20
2018-12-02T17:09:51.580Z,1.13
2018-12-02T17:14:05.123Z,1.30
2018-12-02T17:18:21.251Z,1.27
2018-12-02T17:22:32.418Z,1.53
2018-12-02T17:26:46.019Z,1.07
2018-12-02T17:31:21.189Z,1.70
2018-12-02T17:35:34.053Z,1.50
2018-12-02T17:39:52.051Z,2.00
2018-12-02T17:44:01.587Z,2.67
2018-12-02T17:48:14.347Z,2.00
2018-12-02T17:52:31.203Z,2.02
2018-12-02T17:57:00.746Z,2.50
2018-12-02T18:01:15.682Z,2.77
2018-12-02T18:05:35.172Z,2.20
2018-12-02T18:09:48.014Z,2.42
2018-12-02T18:13:59.431Z,2.07
2018-12-02T18:18:10.466Z,1.97
2018-12-02T18:22:22.233Z,2.02
2018-12-02T18:26:36.706Z,2.20
2018-12-02T18:30:47.821Z,2.57
2018-12-02T18:34:57.933Z,2.80
2018-12-02T18:39:18.822Z,2.30
2018-12-02T18:43:33.613Z,2.20
2018-12-02T18:47:41.993Z,2.70
2018-12-02T18:51:52.172Z,2.97
2018-12-02T18:56:03.206Z,3.00
2018-12-02T19:00:33.127Z,3.63
2018-12-02T19:04:48.519Z,3.52
2018-12-02T19:09:21.027Z,4.03
2018-12-02T19:13:35.164Z,3.53
2018-12-02T19:17:47.397Z,3.20
2018-12-02T19:22:01.099Z,2.97
2018-12-02T19:26:15.715Z,2.83
2018-12-02T19:30:24.744Z,2.77
2018-12-02T19:34:36.630Z,2.73
2018-12-02T19:38:49.421Z,2.50
2018-12-02T19:42:58.773Z,2.77
2018-12-02T19:47:11.750Z,3.67
2018-12-02T19:51:24.271Z,4.62
2018-12-02T19:55:39.300Z,4.83
2018-12-02T19:59:49.239Z,5.50
2018-12-02T20:04:00.938Z,4.70
2018-12-02T20:08:12.331Z,4.60
2018-12-02T20:12:23.973Z,4.85
2018-12-02T20:16:37.548Z,4.70
2018-12-02T20:20:53.278Z,5.77
2018-12-02T20:25:12.259Z,5.03
2018-12-02T20:29:21.741Z,5.60
2018-12-02T20:33:33.571Z,4.77
2018-12-02T20:37:44.938Z,5.07
2018-12-02T20:42:00.610Z,5.47
2018-12-02T20:46:17.651Z,6.05
2018-12-02T20:50:29.400Z,5.97
2018-12-02T20:54:41.572Z,6.73
2018-12-02T20:58:49.387Z,7.83
2018-12-02T21:03:22.401Z,7.97
2018-12-02T21:07:38.034Z,8.23
2018-12-02T21:11:49.757Z,9.37
2018-12-02T21:16:03.396Z,8.80
2018-12-02T21:20:20.914Z,9.80
2018-12-02T21:24:32.016Z,10.77
2018-12-02T21:28:48.012Z,11.60
2018-12-02T21:33:04.646Z,13.13
2018-12-02T21:37:22.635Z,14.17
2018-12-02T21:41:33.401Z,15.17
2018-12-02T21:45:45.043Z,15.87
2018-12-02T21:50:04.273Z,16.23
2018-12-02T21:54:16.759Z,17.57
2018-12-02T21:58:29.435Z,17.87
2018-12-02T22:02:42.442Z,17.60
2018-12-02T22:06:52.407Z,18.83
2018-12-02T22:11:03.283Z,18.73
2018-12-02T22:16:07.159Z,19.77
2018-12-02T22:20:25.447Z,21.37
2018-12-02T22:24:42.501Z,21.03
2018-12-02T22:28:52.373Z,23.40
2018-12-02T22:33:07.751Z,24.13
2018-12-02T22:37:21.585Z,26.55
2018-12-02T22:41:34.086Z,24.80
2018-12-02T22:45:45.005Z,23.50
2018-12-02T22:49:59.432Z,24.83
2018-12-02T22:54:21.670Z,20.97
2018-12-02T22:58:34.407Z,23.67
2018-12-02T23:03:02.495Z,23.53
2018-12-02T23:07:16.978Z,24.20
2018-12-02T23:11:30.853Z,24.93
2018-12-02T23:15:48.374Z,25.50
2018-12-02T23:20:00.944Z,23.53
2018-12-02T23:24:14.469Z,25.27
2018-12-02T23:28:29.268Z,24.75
2018-12-02T23:32:46.704Z,20.67
2018-12-02T23:37:02.125Z,24.70
2018-12-02T23:41:08.420Z,23.30
2018-12-02T23:45:18.079Z,24.33
2018-12-02T23:49:38.611Z,24.03
2018-12-02T23:53:52.207Z,22.43
2018-12-02T23:58:07.589Z,20.97
